Time;durP1;ratioP1;P1;durP2;ratioP2;P2;SDS_P1;SDS_P2;PMS_P1;PMS_P2;Temp;Humidity;BMP_temperature;BMP_pressure;BME280_temperature;BME280_humidity;BME280_pressure;Samples;Min_cycle;Max_cycle;Signal;HPM_P1;HPM_P2
2023/08/01 00:00:18;;;;;;;5.03;3.23;;;22.90;88.80;;;;;;5074489;28;20216;-71
2023/08/01 00:02:45;;;;;;;5.20;3.37;;;22.80;88.70;;;;;;5074445;28;20204;-72
2023/08/01 00:05:11;;;;;;;5.03;3.47;;;22.80;89.10;;;;;;5074646;28;20201;-71
2023/08/01 00:07:38;;;;;;;6.03;3.43;;;22.70;89.00;;;;;;5074393;28;20209;-71
2023/08/01 00:10:07;;;;;;;4.50;3.10;;;22.70;89.10;;;;;;5074171;28;20665;-71
2023/08/01 00:12:34;;;;;;;6.37;4.10;;;22.80;89.40;;;;;;5074178;28;20201;-71
2023/08/01 00:15:01;;;;;;;4.80;3.37;;;22.80;89.20;;;;;;5074275;28;20239;-72
2023/08/01 00:17:28;;;;;;;5.07;3.50;;;22.80;89.10;;;;;;5074396;28;20224;-72
2023/08/01 00:19:55;;;;;;;7.20;4.27;;;22.70;89.10;;;;;;5074474;28;20700;-71
2023/08/01 00:22:22;;;;;;;4.90;3.87;;;22.60;89.40;;;;;;5073945;28;20787;-72
2023/08/01 00:24:49;;;;;;;4.63;3.57;;;22.50;89.80;;;;;;5074275;28;20205;-71
2023/08/01 00:27:17;;;;;;;6.27;3.60;;;22.50;90.10;;;;;;5073706;28;20243;-72
2023/08/01 00:29:44;;;;;;;5.30;3.60;;;22.50;90.00;;;;;;5074278;28;20196;-71
2023/08/01 00:32:11;;;;;;;6.67;4.13;;;22.50;90.10;;;;;;5074029;28;20221;-72
2023/08/01 00:34:38;;;;;;;5.83;4.30;;;22.50;90.20;;;;;;5073937;28;20229;-72
2023/08/01 00:37:05;;;;;;;4.87;3.67;;;22.50;90.20;;;;;;5073641;28;20199;-71
2023/08/01 00:39:32;;;;;;;5.50;3.53;;;22.50;90.50;;;;;;5073232;28;20305;-71
2023/08/01 00:41:59;;;;;;;6.90;3.67;;;22.50;90.10;;;;;;5073271;28;20241;-72
2023/08/01 00:44:27;;;;;;;4.73;3.63;;;22.60;90.10;;;;;;5073369;28;20201;-71
2023/08/01 00:46:54;;;;;;;5.17;4.00;;;22.50;90.20;;;;;;5073937;28;20200;-72
2023/08/01 00:49:21;;;;;;;5.77;3.77;;;22.60;90.30;;;;;;5074168;28;20225;-71
2023/08/01 00:51:48;;;;;;;5.20;3.90;;;22.60;90.20;;;;;;5073477;28;20201;-71
2023/08/01 00:54:15;;;;;;;5.20;3.67;;;22.60;90.30;;;;;;5073382;28;20209;-72
2023/08/01 00:56:43;;;;;;;4.90;3.73;;;22.50;90.20;;;;;;5073119;28;20216;-72
2023/08/01 00:59:09;;;;;;;5.67;3.93;;;22.50;90.30;;;;;;5073566;28;20220;-72
2023/08/01 01:01:37;;;;;;;6.03;3.67;;;22.50;90.30;;;;;;5073656;28;20649;-72
2023/08/01 01:04:04;;;;;;;6.70;4.20;;;22.60;90.30;;;;;;5073174;28;20243;-72
2023/08/01 01:06:34;;;;;;;4.33;3.37;;;22.50;90.20;;;;;;5073298;28;20215;-72
2023/08/01 01:09:04;;;;;;;8.67;3.97;;;22.50;90.00;;;;;;5073190;28;20204;-72
2023/08/01 01:11:31;;;;;;;5.13;3.20;;;22.40;90.00;;;;;;5073019;28;20276;-72
2023/08/01 01:13:58;;;;;;;4.70;3.43;;;22.30;90.10;;;;;;5073063;28;20224;-72
2023/08/01 01:16:24;;;;;;;4.80;3.17;;;22.30;90.30;;;;;;5072974;28;20217;-72
2023/08/01 01:18:52;;;;;;;6.93;3.80;;;22.20;90.30;;;;;;5072065;28;20235;-72
2023/08/01 01:21:20;;;;;;;5.30;3.63;;;22.30;90.30;;;;;;5073200;28;20588;-72
2023/08/01 01:23:48;;;;;;;4.53;3.53;;;22.30;90.30;;;;;;5072781;28;20209;-72
2023/08/01 01:26:20;;;;;;;6.80;3.87;;;22.30;90.30;;;;;;5072044;28;20200;-71
2023/08/01 01:28:48;;;;;;;3.73;3.23;;;22.30;90.30;;;;;;5072426;28;20209;-72
2023/08/01 01:31:16;;;;;;;6.10;3.70;;;22.30;90.30;;;;;;5072090;28;20236;-71
2023/08/01 01:33:43;;;;;;;4.83;3.17;;;22.30;90.30;;;;;;5072237;28;20709;-72
2023/08/01 01:36:10;;;;;;;9.47;3.83;;;22.30;90.40;;;;;;5072711;28;20236;-72
2023/08/01 01:38:38;;;;;;;4.33;3.40;;;22.20;90.50;;;;;;5072318;28;20303;-71
2023/08/01 01:41:04;;;;;;;4.30;3.90;;;22.20;90.50;;;;;;5072630;28;20215;-72
2023/08/01 01:43:31;;;;;;;4.67;3.83;;;22.20;90.60;;;;;;5067167;28;20205;-71
2023/08/01 01:45:58;;;;;;;6.00;3.83;;;22.20;90.60;;;;;;5074356;28;20227;-71
2023/08/01 01:48:25;;;;;;;5.67;3.70;;;22.20;91.00;;;;;;5076092;28;20212;-71
2023/08/01 01:50:52;;;;;;;5.53;4.27;;;22.20;90.60;;;;;;5073420;28;20205;-72
2023/08/01 01:53:18;;;;;;;4.57;3.50;;;22.20;90.90;;;;;;5071631;28;20692;-71
2023/08/01 01:55:47;;;;;;;3.90;3.50;;;22.10;90.70;;;;;;5072143;28;20208;-71
2023/08/01 01:58:13;;;;;;;5.73;3.73;;;22.10;90.80;;;;;;5071791;28;20728;-72
2023/08/01 02:00:40;;;;;;;4.50;3.60;;;22.10;90.90;;;;;;5071399;28;20197;-72
2023/08/01 02:03:10;;;;;;;4.47;3.77;;;22.10;90.80;;;;;;5072139;28;20197;-72
2023/08/01 02:05:36;;;;;;;4.60;3.23;;;22.10;90.90;;;;;;5071951;28;20265;-71
2023/08/01 02:08:04;;;;;;;4.87;3.30;;;22.10;90.80;;;;;;5072441;28;20215;-72
2023/08/01 02:10:31;;;;;;;5.43;3.80;;;22.10;90.90;;;;;;5072240;28;20693;-72
2023/08/01 02:13:00;;;;;;;4.43;3.67;;;22.10;91.00;;;;;;5072203;28;20323;-72
2023/08/01 02:15:27;;;;;;;4.43;3.37;;;22.10;91.00;;;;;;5071782;28;20213;-71
2023/08/01 02:17:54;;;;;;;4.97;3.80;;;22.10;91.00;;;;;;5072003;28;20217;-72
2023/08/01 02:20:20;;;;;;;4.47;4.07;;;22.20;90.90;;;;;;5072257;28;20811;-71
2023/08/01 02:22:47;;;;;;;5.93;3.87;;;22.20;90.80;;;;;;5072113;28;20201;-72
2023/08/01 02:25:14;;;;;;;4.87;3.50;;;22.20;90.70;;;;;;5071925;28;20588;-71
2023/08/01 02:27:41;;;;;;;5.30;3.40;;;22.20;90.70;;;;;;5071998;28;20231;-71
2023/08/01 02:30:11;;;;;;;4.70;3.53;;;22.30;90.60;;;;;;5072113;28;20223;-72
2023/08/01 02:32:38;;;;;;;5.63;4.13;;;22.30;90.70;;;;;;5071763;28;20197;-72
2023/08/01 02:35:05;;;;;;;4.50;3.70;;;22.30;90.50;;;;;;5071708;28;20680;-71
2023/08/01 02:37:32;;;;;;;5.80;3.87;;;22.30;90.50;;;;;;5071884;28;20205;-71
2023/08/01 02:39:59;;;;;;;7.80;3.63;;;22.30;90.50;;;;;;5071740;28;20225;-71
2023/08/01 02:42:26;;;;;;;4.40;3.57;;;22.30;90.50;;;;;;5071624;28;20683;-72
2023/08/01 02:44:52;;;;;;;4.80;3.77;;;22.30;90.50;;;;;;5072180;28;20201;-72
2023/08/01 02:47:20;;;;;;;5.93;3.63;;;22.40;90.50;;;;;;5071857;28;20319;-71
2023/08/01 02:49:47;;;;;;;5.50;3.43;;;22.40;90.40;;;;;;5072156;28;20562;-71
2023/08/01 02:52:14;;;;;;;5.47;3.40;;;22.40;90.40;;;;;;5071652;28;20209;-72
2023/08/01 02:54:41;;;;;;;5.00;3.73;;;22.50;90.40;;;;;;5071562;28;20211;-71
2023/08/01 02:57:08;;;;;;;5.13;4.00;;;22.50;90.40;;;;;;5071508;28;20221;-71
2023/08/01 02:59:34;;;;;;;4.27;3.87;;;22.50;90.40;;;;;;5071661;28;20225;-71
2023/08/01 03:02:01;;;;;;;4.63;3.63;;;22.50;90.40;;;;;;5071735;28;20208;-72
2023/08/01 03:04:29;;;;;;;4.60;3.50;;;22.50;90.40;;;;;;5074878;28;20243;-72
2023/08/01 03:06:56;;;;;;;4.57;3.73;;;22.50;90.40;;;;;;5075257;28;20197;-71
2023/08/01 03:09:23;;;;;;;5.73;3.70;;;22.50;90.40;;;;;;5075330;28;20217;-72
2023/08/01 03:11:50;;;;;;;5.50;4.10;;;22.40;90.40;;;;;;5075614;28;20189;-71
2023/08/01 03:14:17;;;;;;;8.00;4.00;;;22.30;90.60;;;;;;5075368;28;20205;-71
2023/08/01 03:16:44;;;;;;;6.10;3.90;;;22.20;91.00;;;;;;5075291;28;20298;-71
2023/08/01 03:19:10;;;;;;;5.57;3.87;;;22.10;91.60;;;;;;5074869;28;20225;-71
2023/08/01 03:21:39;;;;;;;4.43;3.80;;;22.00;91.20;;;;;;5075043;28;20197;-72
2023/08/01 03:24:08;;;;;;;5.97;3.70;;;22.00;91.10;;;;;;5074824;28;20551;-72
2023/08/01 03:26:35;;;;;;;5.60;3.67;;;22.00;91.30;;;;;;5074974;28;20224;-72
2023/08/01 03:29:02;;;;;;;5.57;3.73;;;22.00;91.30;;;;;;5075210;28;20224;-71
2023/08/01 03:31:29;;;;;;;6.83;4.20;;;22.00;91.10;;;;;;5075029;28;20204;-71
2023/08/01 03:33:58;;;;;;;5.97;3.67;;;22.00;91.10;;;;;;5074637;28;20591;-71
2023/08/01 03:36:25;;;;;;;5.37;3.87;;;22.00;91.00;;;;;;5074481;28;20705;-71
2023/08/01 03:38:53;;;;;;;5.60;4.20;;;22.10;91.10;;;;;;5074671;28;20312;-72
2023/08/01 03:41:20;;;;;;;6.13;3.30;;;22.00;90.90;;;;;;5074837;28;20661;-72
2023/08/01 03:43:47;;;;;;;5.30;3.83;;;22.00;90.90;;;;;;5058942;28;20222;-72
2023/08/01 03:46:13;;;;;;;6.00;3.60;;;22.00;91.00;;;;;;5054629;28;20212;-71
2023/08/01 03:48:40;;;;;;;6.93;3.20;;;22.00;91.00;;;;;;5055015;28;20225;-71
2023/08/01 03:51:07;;;;;;;7.27;4.27;;;22.00;91.10;;;;;;5054896;28;20327;-72
2023/08/01 03:53:34;;;;;;;6.67;3.77;;;22.10;91.50;;;;;;5069445;28;20206;-71
2023/08/01 03:56:02;;;;;;;6.93;3.50;;;22.00;91.00;;;;;;5074403;28;20225;-71
2023/08/01 03:58:29;;;;;;;5.33;3.47;;;21.90;91.10;;;;;;5074202;28;20221;-71
2023/08/01 04:00:56;;;;;;;4.87;3.30;;;21.90;91.20;;;;;;5074979;28;20217;-72
2023/08/01 04:03:22;;;;;;;3.83;3.27;;;22.00;91.10;;;;;;5074596;28;20225;-72
2023/08/01 04:05:49;;;;;;;5.90;3.97;;;22.00;91.10;;;;;;5074324;28;20209;-71
2023/08/01 04:08:16;;;;;;;6.27;3.73;;;22.00;91.10;;;;;;5074328;28;20228;-71
2023/08/01 04:10:43;;;;;;;7.20;3.53;;;22.00;91.10;;;;;;5074504;28;20244;-71
2023/08/01 04:13:11;;;;;;;5.77;3.57;;;21.90;91.00;;;;;;5074220;28;20222;-71
2023/08/01 04:15:38;;;;;;;6.43;3.97;;;22.00;91.00;;;;;;5073976;28;20212;-72
2023/08/01 04:18:05;;;;;;;4.93;3.70;;;22.00;91.00;;;;;;5074400;28;20235;-71
2023/08/01 04:20:32;;;;;;;6.90;3.63;;;22.00;91.10;;;;;;5073985;28;20229;-72
2023/08/01 04:22:58;;;;;;;4.67;3.57;;;21.90;91.10;;;;;;5074153;28;20570;-71
2023/08/01 04:25:26;;;;;;;4.50;3.53;;;21.80;91.20;;;;;;5074049;28;20201;-71
2023/08/01 04:27:53;;;;;;;5.23;3.93;;;21.80;91.30;;;;;;5074268;28;20203;-71
2023/08/01 04:30:21;;;;;;;4.53;3.87;;;21.70;91.40;;;;;;5074148;28;20197;-71
2023/08/01 04:32:48;;;;;;;5.80;3.43;;;21.70;91.40;;;;;;5073832;28;20228;-71
2023/08/01 04:35:15;;;;;;;5.87;3.57;;;21.70;91.30;;;;;;5073671;28;20209;-71
2023/08/01 04:37:42;;;;;;;5.33;3.30;;;21.60;91.50;;;;;;5073911;28;20232;-70
2023/08/01 04:40:10;;;;;;;4.43;3.20;;;21.70;91.50;;;;;;5073547;28;20232;-71
2023/08/01 04:42:37;;;;;;;5.20;3.53;;;21.80;91.50;;;;;;5067726;28;20201;-71
2023/08/01 04:45:06;;;;;;;5.37;3.53;;;21.80;91.40;;;;;;5066168;28;20201;-72
2023/08/01 04:47:35;;;;;;;3.97;3.40;;;21.80;91.30;;;;;;5073801;28;20228;-71
2023/08/01 04:50:01;;;;;;;4.63;3.70;;;21.80;91.40;;;;;;5073888;28;20198;-72
2023/08/01 04:52:28;;;;;;;5.57;3.43;;;21.80;91.30;;;;;;5073839;28;20211;-72
2023/08/01 04:54:55;;;;;;;5.77;3.73;;;21.80;91.30;;;;;;5073458;28;20588;-71
2023/08/01 04:57:22;;;;;;;5.70;3.87;;;21.90;91.40;;;;;;5073635;28;20186;-71
2023/08/01 04:59:49;;;;;;;6.57;3.83;;;21.90;91.20;;;;;;5073358;28;20232;-71
2023/08/01 05:02:15;;;;;;;3.57;3.17;;;21.90;91.30;;;;;;5073224;28;20576;-71
2023/08/01 05:04:43;;;;;;;4.53;3.27;;;22.00;91.50;;;;;;5073244;28;20215;-71
2023/08/01 05:07:10;;;;;;;6.93;3.60;;;22.00;91.40;;;;;;5072935;28;20230;-71
2023/08/01 05:09:37;;;;;;;5.80;3.70;;;22.00;91.40;;;;;;5073570;28;20205;-71
2023/08/01 05:12:04;;;;;;;4.60;3.70;;;22.10;91.40;;;;;;5073143;28;20582;-71
2023/08/01 05:14:31;;;;;;;4.47;3.53;;;22.10;91.20;;;;;;5072847;28;20227;-72
2023/08/01 05:16:58;;;;;;;4.70;3.30;;;22.10;91.20;;;;;;5072839;28;20210;-71
2023/08/01 05:19:25;;;;;;;5.83;3.67;;;22.20;91.10;;;;;;5072764;28;20567;-71
2023/08/01 05:21:53;;;;;;;6.57;3.83;;;22.30;91.20;;;;;;5072451;28;20278;-71
2023/08/01 05:24:20;;;;;;;5.13;3.40;;;22.20;91.00;;;;;;5072845;28;20213;-72
2023/08/01 05:26:46;;;;;;;7.33;3.93;;;22.30;91.10;;;;;;5072109;28;20223;-72
2023/08/01 05:29:13;;;;;;;5.37;3.60;;;22.30;91.00;;;;;;5072820;28;20208;-71
2023/08/01 05:31:40;;;;;;;5.43;3.50;;;22.30;91.40;;;;;;5072786;28;20197;-71
2023/08/01 05:34:07;;;;;;;6.83;3.80;;;22.30;91.00;;;;;;5069985;28;20221;-71
2023/08/01 05:36:34;;;;;;;5.20;3.53;;;22.30;91.10;;;;;;5072155;28;20652;-71
2023/08/01 05:39:02;;;;;;;4.33;3.80;;;22.20;91.00;;;;;;5072919;28;20220;-72
2023/08/01 05:41:28;;;;;;;6.23;3.43;;;22.10;91.10;;;;;;5072266;28;20248;-72
2023/08/01 05:43:55;;;;;;;5.63;3.70;;;21.90;91.30;;;;;;5072345;28;20205;-71
2023/08/01 05:46:22;;;;;;;4.73;3.90;;;21.90;91.50;;;;;;5072269;28;20657;-71
2023/08/01 05:48:49;;;;;;;8.17;4.00;;;21.80;92.00;;;;;;5072179;28;20236;-71
2023/08/01 05:51:16;;;;;;;4.13;3.40;;;21.90;91.70;;;;;;5071926;28;20291;-72
2023/08/01 05:53:42;;;;;;;4.60;3.60;;;21.90;91.60;;;;;;5072209;28;20197;-71
2023/08/01 05:56:11;;;;;;;4.63;3.83;;;21.90;91.70;;;;;;5071852;28;20201;-71
2023/08/01 05:58:37;;;;;;;6.97;4.30;;;21.80;91.70;;;;;;5071339;28;20197;-71
2023/08/01 06:01:04;;;;;;;6.30;3.80;;;21.70;91.70;;;;;;5071740;28;20228;-71
2023/08/01 06:03:31;;;;;;;6.30;4.33;;;21.70;91.90;;;;;;5063020;28;20654;-71
2023/08/01 06:05:58;;;;;;;5.53;3.93;;;21.60;91.90;;;;;;5059731;28;20201;-71
2023/08/01 06:08:25;;;;;;;6.17;3.93;;;21.50;92.20;;;;;;5071641;28;20221;-72
2023/08/01 06:10:52;;;;;;;7.13;4.20;;;21.50;92.20;;;;;;5071834;28;20553;-71
2023/08/01 06:13:20;;;;;;;5.70;4.30;;;21.50;92.20;;;;;;5071852;28;20204;-71
2023/08/01 06:15:47;;;;;;;6.63;4.30;;;21.50;92.30;;;;;;5057362;28;20244;-71
2023/08/01 06:18:14;;;;;;;5.97;4.10;;;21.40;92.50;;;;;;5052783;28;20206;-72
2023/08/01 06:20:41;;;;;;;5.97;4.20;;;21.30;92.80;;;;;;5071979;28;20232;-71
2023/08/01 06:23:07;;;;;;;5.60;4.50;;;21.30;92.90;;;;;;5072165;28;20312;-72
2023/08/01 06:25:34;;;;;;;6.03;4.33;;;21.20;93.20;;;;;;5071574;28;20303;-71
2023/08/01 06:28:01;;;;;;;6.60;4.70;;;21.20;93.10;;;;;;5072177;28;20234;-71
2023/08/01 06:30:29;;;;;;;6.70;4.50;;;21.10;93.00;;;;;;5102975;28;20765;-71
2023/08/01 06:32:56;;;;;;;5.60;4.30;;;21.20;93.10;;;;;;5058299;28;20211;-71
2023/08/01 06:35:23;;;;;;;6.33;4.07;;;21.10;93.10;;;;;;5070616;28;20700;-72
2023/08/01 06:37:50;;;;;;;5.87;4.60;;;21.20;93.00;;;;;;5072862;28;20201;-72
2023/08/01 06:40:16;;;;;;;7.10;4.40;;;21.20;93.00;;;;;;5076252;28;20224;-72
2023/08/01 06:42:43;;;;;;;6.83;4.67;;;21.20;93.00;;;;;;5076225;28;20209;-72
2023/08/01 06:45:10;;;;;;;6.97;5.10;;;21.20;92.90;;;;;;5075124;28;20649;-72
2023/08/01 06:47:39;;;;;;;7.00;4.70;;;21.20;93.20;;;;;;5075857;28;20229;-72
2023/08/01 06:50:06;;;;;;;6.20;4.57;;;21.20;93.20;;;;;;5076199;28;20208;-72
2023/08/01 06:52:33;;;;;;;5.63;5.03;;;21.20;93.30;;;;;;5075427;28;20201;-72
2023/08/01 06:55:00;;;;;;;5.60;4.83;;;21.30;93.40;;;;;;5075331;28;20196;-72
2023/08/01 06:57:27;;;;;;;5.37;4.23;;;21.30;93.30;;;;;;5073872;28;20231;-72
2023/08/01 06:59:54;;;;;;;7.10;4.73;;;21.30;93.20;;;;;;5067838;28;20695;-72
2023/08/01 07:02:20;;;;;;;5.00;4.50;;;21.30;93.40;;;;;;5065967;28;20201;-72
2023/08/01 07:04:49;;;;;;;6.77;4.67;;;21.30;93.40;;;;;;5075062;28;20232;-71
2023/08/01 07:07:15;;;;;;;6.27;4.70;;;21.30;93.40;;;;;;5074259;28;20355;-72
2023/08/01 07:09:42;;;;;;;6.30;4.50;;;21.40;93.40;;;;;;5074930;28;20201;-72
2023/08/01 07:12:09;;;;;;;7.57;4.73;;;21.30;93.60;;;;;;5075075;28;20209;-72
2023/08/01 07:14:36;;;;;;;7.17;4.33;;;21.40;93.60;;;;;;5074246;28;20233;-72
2023/08/01 07:17:03;;;;;;;5.97;4.87;;;21.40;93.40;;;;;;5074640;28;20213;-72
2023/08/01 07:19:30;;;;;;;6.77;4.30;;;21.40;93.50;;;;;;5073032;28;20320;-72
2023/08/01 07:21:58;;;;;;;7.10;4.83;;;21.40;93.60;;;;;;5073337;28;20243;-72
2023/08/01 07:24:25;;;;;;;7.20;4.33;;;21.30;93.90;;;;;;5073442;28;20224;-72
2023/08/01 07:26:52;;;;;;;5.87;4.43;;;21.30;93.90;;;;;;5074242;28;20205;-71
2023/08/01 07:29:18;;;;;;;5.87;4.23;;;21.30;93.90;;;;;;5074273;28;20239;-72
2023/08/01 07:31:45;;;;;;;5.77;4.50;;;21.40;93.80;;;;;;5074659;28;20209;-72
2023/08/01 07:34:12;;;;;;;5.27;4.37;;;21.40;94.00;;;;;;5074271;28;20595;-72
2023/08/01 07:36:40;;;;;;;5.23;4.40;;;21.40;93.90;;;;;;5073809;28;20220;-72
2023/08/01 07:39:08;;;;;;;5.17;4.40;;;21.40;93.80;;;;;;5074394;28;20204;-72
2023/08/01 07:41:35;;;;;;;7.33;4.20;;;21.30;93.80;;;;;;5074123;28;20229;-72
2023/08/01 07:44:03;;;;;;;4.73;3.67;;;21.30;93.70;;;;;;5073919;28;20205;-72
2023/08/01 07:46:30;;;;;;;6.40;3.60;;;21.30;93.90;;;;;;5087865;28;20233;-72
2023/08/01 07:48:56;;;;;;;6.27;4.10;;;21.40;93.80;;;;;;5074253;28;20709;-72
2023/08/01 07:51:23;;;;;;;4.33;3.47;;;21.50;93.80;;;;;;5075049;28;20201;-72
2023/08/01 07:53:52;;;;;;;5.17;3.37;;;21.50;93.70;;;;;;5074562;28;20236;-72
2023/08/01 07:56:21;;;;;;;4.30;3.20;;;21.50;93.90;;;;;;5074589;28;20207;-72
2023/08/01 07:58:47;;;;;;;4.60;3.40;;;21.60;94.20;;;;;;5074710;28;20204;-72
2023/08/01 08:01:14;;;;;;;3.97;3.30;;;21.50;93.70;;;;;;5074721;28;20231;-71
2023/08/01 08:03:41;;;;;;;4.30;3.30;;;21.50;93.80;;;;;;5074510;28;20209;-72
2023/08/01 08:06:08;;;;;;;4.33;2.93;;;21.40;94.00;;;;;;5073941;28;20231;-72
2023/08/01 08:08:36;;;;;;;3.10;2.80;;;21.40;94.10;;;;;;5074614;28;20216;-72
2023/08/01 08:11:03;;;;;;;4.07;2.60;;;21.30;94.20;;;;;;5074451;28;20205;-72
2023/08/01 08:13:32;;;;;;;3.17;2.20;;;21.30;94.30;;;;;;5074248;28;20237;-71
2023/08/01 08:15:59;;;;;;;2.70;2.20;;;21.20;94.30;;;;;;5074063;28;21055;-72
2023/08/01 08:18:26;;;;;;;3.20;2.70;;;21.10;94.60;;;;;;5074354;28;20604;-71
2023/08/01 08:20:53;;;;;;;3.47;2.40;;;21.00;94.70;;;;;;5074519;28;20582;-72
2023/08/01 08:23:20;;;;;;;2.87;2.57;;;21.00;94.80;;;;;;5074295;28;20209;-72
2023/08/01 08:25:47;;;;;;;4.93;2.80;;;21.10;94.90;;;;;;5073869;28;20220;-72
2023/08/01 08:28:14;;;;;;;3.03;2.37;;;21.10;95.40;;;;;;5074029;28;20209;-72
2023/08/01 08:30:42;;;;;;;2.73;2.40;;;21.10;95.00;;;;;;5073832;28;20316;-71
2023/08/01 08:33:10;;;;;;;3.23;2.67;;;21.10;95.20;;;;;;5074269;28;20201;-72
2023/08/01 08:35:37;;;;;;;4.73;2.73;;;21.20;95.20;;;;;;5073528;28;20211;-72
2023/08/01 08:38:04;;;;;;;2.73;2.30;;;21.20;95.10;;;;;;5073990;28;20205;-72
2023/08/01 08:40:33;;;;;;;3.60;2.57;;;21.30;95.10;;;;;;5073972;28;20244;-71
2023/08/01 08:43:03;;;;;;;3.37;2.20;;;21.30;95.10;;;;;;5064551;28;20298;-72
2023/08/01 08:45:34;;;;;;;3.93;2.70;;;21.20;95.00;;;;;;5053683;28;20215;-72
2023/08/01 08:48:05;;;;;;;3.60;2.60;;;21.30;95.30;;;;;;5053765;28;20186;-72
2023/08/01 08:50:34;;;;;;;3.83;2.53;;;21.30;95.50;;;;;;5053830;28;20639;-72
2023/08/01 08:53:01;;;;;;;3.90;2.60;;;21.40;95.10;;;;;;5053672;28;20206;-72
2023/08/01 08:55:31;;;;;;;3.80;2.57;;;21.50;95.10;;;;;;5053296;28;20727;-72
2023/08/01 08:57:59;;;;;;;3.57;2.50;;;21.60;95.00;;;;;;5053140;28;20584;-72
2023/08/01 09:00:27;;;;;;;2.33;2.13;;;21.70;94.90;;;;;;5052288;28;20706;-72
2023/08/01 09:02:54;;;;;;;3.73;2.30;;;21.80;94.90;;;;;;5053717;28;20191;-72
2023/08/01 09:05:28;;;;;;;2.03;1.70;;;22.00;95.20;;;;;;5054350;28;20208;-72
2023/08/01 09:07:57;;;;;;;2.20;2.00;;;22.10;94.90;;;;;;5073077;28;20231;-71
2023/08/01 09:10:24;;;;;;;3.00;2.17;;;22.20;94.70;;;;;;5073334;28;20197;-72
2023/08/01 09:12:51;;;;;;;2.87;2.20;;;22.40;94.70;;;;;;5073008;28;20229;-72
2023/08/01 09:15:18;;;;;;;2.47;2.10;;;22.50;94.00;;;;;;5072827;28;20200;-72
2023/08/01 09:17:50;;;;;;;2.17;1.90;;;22.50;94.20;;;;;;5072685;28;20691;-72
2023/08/01 09:20:17;;;;;;;2.63;1.90;;;22.50;94.00;;;;;;5072750;28;20727;-72
2023/08/01 09:22:46;;;;;;;2.57;2.07;;;22.60;94.20;;;;;;5073346;28;20201;-72
2023/08/01 09:25:13;;;;;;;1.90;1.63;;;22.70;94.30;;;;;;5072615;28;20319;-72
2023/08/01 09:27:40;;;;;;;2.70;1.63;;;22.70;94.00;;;;;;5072448;28;20223;-72
2023/08/01 09:30:11;;;;;;;1.60;1.50;;;22.90;94.20;;;;;;5072831;28;20209;-71
2023/08/01 09:32:38;;;;;;;1.70;1.60;;;23.00;93.30;;;;;;5072665;28;20247;-72
2023/08/01 09:35:05;;;;;;;1.53;1.30;;;23.10;94.00;;;;;;5072455;28;20298;-72
2023/08/01 09:37:41;;;;;;;3.97;1.60;;;23.30;93.50;;;;;;5072874;28;20544;-72
2023/08/01 09:40:10;;;;;;;1.40;1.30;;;23.40;92.20;;;;;;5072573;28;20541;-72
2023/08/01 09:42:41;;;;;;;1.40;1.00;;;23.50;91.20;;;;;;5066771;28;20677;-72
2023/08/01 09:45:14;;;;;;;1.60;1.30;;;23.50;91.10;;;;;;5052731;28;20238;-72
2023/08/01 09:47:41;;;;;;;1.37;1.03;;;23.60;90.30;;;;;;5052428;28;20188;-72
2023/08/01 09:50:10;;;;;;;2.30;1.47;;;23.50;90.10;;;;;;5052705;28;20226;-72
2023/08/01 09:52:38;;;;;;;1.53;1.07;;;23.50;90.70;;;;;;5052746;28;20225;-71
2023/08/01 09:55:06;;;;;;;1.47;1.00;;;23.60;90.60;;;;;;5052506;28;20202;-72
2023/08/01 09:57:38;;;;;;;0.93;0.87;;;23.60;90.50;;;;;;5069599;28;20235;-71
2023/08/01 10:00:07;;;;;;;0.83;0.83;;;23.70;89.20;;;;;;5072610;28;20292;-72
2023/08/01 10:02:35;;;;;;;1.00;1.00;;;23.70;88.00;;;;;;5072490;28;20236;-72
2023/08/01 10:05:02;;;;;;;1.07;0.83;;;23.70;88.60;;;;;;5072435;28;20209;-72
2023/08/01 10:07:31;;;;;;;1.27;1.10;;;23.70;87.00;;;;;;5072124;28;20270;-72
2023/08/01 10:09:59;;;;;;;0.87;0.87;;;23.70;88.00;;;;;;5071827;28;20688;-72
2023/08/01 10:12:27;;;;;;;1.10;1.00;;;23.80;87.30;;;;;;5072244;28;20208;-72
2023/08/01 10:14:56;;;;;;;1.10;1.00;;;24.00;87.90;;;;;;5072040;28;20213;-72
2023/08/01 10:17:26;;;;;;;1.83;1.50;;;24.10;86.70;;;;;;5071804;28;20217;-72
2023/08/01 10:19:57;;;;;;;1.27;1.00;;;24.30;85.20;;;;;;5072048;28;20224;-72
2023/08/01 10:22:25;;;;;;;1.33;1.23;;;24.40;84.70;;;;;;5072196;28;20251;-72
2023/08/01 10:24:53;;;;;;;1.30;1.20;;;24.60;85.50;;;;;;5072069;28;20207;-72
2023/08/01 10:27:22;;;;;;;1.73;1.10;;;24.70;84.20;;;;;;5071217;28;20201;-72
2023/08/01 10:29:58;;;;;;;1.20;1.10;;;24.80;81.10;;;;;;5071427;28;20649;-71
2023/08/01 10:32:31;;;;;;;1.77;1.03;;;24.80;78.70;;;;;;5072392;28;20204;-71
2023/08/01 10:34:57;;;;;;;1.50;1.10;;;24.80;79.40;;;;;;5071773;28;20240;-71
2023/08/01 10:37:24;;;;;;;1.00;1.00;;;24.80;80.50;;;;;;5071637;28;20211;-71
2023/08/01 10:39:58;;;;;;;1.30;1.00;;;24.90;80.30;;;;;;5071767;28;20240;-71
2023/08/01 10:42:25;;;;;;;1.10;1.00;;;24.90;75.20;;;;;;5071823;28;20217;-71
2023/08/01 10:44:52;;;;;;;1.00;1.00;;;24.80;76.40;;;;;;5071979;28;20204;-71
2023/08/01 10:47:27;;;;;;;1.67;1.13;;;24.90;76.40;;;;;;5072130;28;20205;-71
2023/08/01 10:49:54;;;;;;;1.20;1.10;;;24.90;72.80;;;;;;5072173;28;20288;-72
2023/08/01 10:52:23;;;;;;;1.80;1.30;;;24.80;73.00;;;;;;5071910;28;20227;-71
2023/08/01 10:54:57;;;;;;;1.83;1.10;;;24.90;73.90;;;;;;5071762;28;20208;-71
2023/08/01 10:57:24;;;;;;;2.23;1.47;;;25.00;73.50;;;;;;5071518;28;20283;-71
2023/08/01 10:59:52;;;;;;;2.03;1.10;;;25.10;73.30;;;;;;5071086;28;20213;-71
2023/08/01 11:02:23;;;;;;;1.37;1.13;;;25.20;73.00;;;;;;5071942;28;20227;-71
2023/08/01 11:04:59;;;;;;;1.43;1.20;;;25.10;69.90;;;;;;5071723;28;20241;-71
2023/08/01 11:07:26;;;;;;;1.53;1.40;;;25.10;68.70;;;;;;5071078;28;20675;-72
2023/08/01 11:10:05;;;;;;;1.67;1.37;;;25.20;69.20;;;;;;5071795;28;20295;-71
2023/08/01 11:12:34;;;;;;;1.67;1.43;;;25.30;69.10;;;;;;5071840;28;20228;-72
2023/08/01 11:15:01;;;;;;;2.00;1.40;;;25.40;69.00;;;;;;5071758;28;20569;-72
2023/08/01 11:17:28;;;;;;;1.83;1.33;;;25.40;68.40;;;;;;5071336;28;20239;-72
2023/08/01 11:20:04;;;;;;;1.90;1.53;;;25.40;68.60;;;;;;5070866;28;20320;-71
2023/08/01 11:22:31;;;;;;;1.97;1.40;;;25.30;68.70;;;;;;5070732;28;20220;-71
2023/08/01 11:24:59;;;;;;;2.00;1.57;;;25.50;66.60;;;;;;5073205;28;20235;-71
2023/08/01 11:27:26;;;;;;;2.37;1.27;;;25.60;65.70;;;;;;5074365;28;20201;-71
2023/08/01 11:29:53;;;;;;;3.27;1.60;;;25.70;66.90;;;;;;5074598;28;20204;-71
2023/08/01 11:32:21;;;;;;;2.73;1.60;;;25.90;64.60;;;;;;5075250;28;20288;-72
2023/08/01 11:34:48;;;;;;;1.50;1.40;;;26.00;64.70;;;;;;5077712;28;20216;-71
2023/08/01 11:37:21;;;;;;;2.63;1.60;;;25.90;62.40;;;;;;5075375;28;20228;-71
2023/08/01 11:39:48;;;;;;;1.63;1.40;;;26.00;64.60;;;;;;5075275;28;20284;-72
2023/08/01 11:42:17;;;;;;;2.03;1.77;;;26.20;61.70;;;;;;5076761;28;20320;-72
2023/08/01 11:44:44;;;;;;;1.50;1.30;;;26.30;62.10;;;;;;5074484;28;20205;-72
2023/08/01 11:47:14;;;;;;;1.87;1.63;;;26.40;60.60;;;;;;5074188;28;20208;-71
2023/08/01 11:49:46;;;;;;;2.27;1.70;;;26.30;59.70;;;;;;5074090;28;20213;-71
2023/08/01 11:52:24;;;;;;;2.33;1.53;;;26.20;60.00;;;;;;5074620;28;20225;-71
2023/08/01 11:54:51;;;;;;;2.00;1.80;;;26.10;58.70;;;;;;5074743;28;20189;-71
2023/08/01 11:57:18;;;;;;;3.50;1.60;;;26.20;61.20;;;;;;5074244;28;20232;-71
2023/08/01 11:59:49;;;;;;;1.80;1.50;;;26.40;60.30;;;;;;5074720;28;20784;-71
2023/08/01 12:02:26;;;;;;;4.57;1.53;;;26.40;58.80;;;;;;5074610;28;20241;-71
2023/08/01 12:04:54;;;;;;;3.30;1.80;;;26.50;57.60;;;;;;5074526;28;20201;-71
2023/08/01 12:07:22;;;;;;;4.13;1.87;;;26.60;59.40;;;;;;5074319;28;20217;-71
2023/08/01 12:09:58;;;;;;;1.50;1.40;;;26.70;57.00;;;;;;5074198;28;20230;-72
2023/08/01 12:12:26;;;;;;;2.30;1.87;;;26.70;55.70;;;;;;5074607;28;20182;-72
2023/08/01 12:14:54;;;;;;;2.47;1.50;;;26.90;57.70;;;;;;5074362;28;20579;-72
2023/08/01 12:17:20;;;;;;;1.93;1.53;;;27.10;56.90;;;;;;5074218;28;20580;-72
2023/08/01 12:19:47;;;;;;;1.60;1.47;;;27.00;57.30;;;;;;5074028;28;20715;-71
2023/08/01 12:22:15;;;;;;;1.53;1.43;;;27.00;56.60;;;;;;5074328;28;20238;-71
2023/08/01 12:24:42;;;;;;;1.87;1.43;;;27.10;55.30;;;;;;5074177;28;20217;-72
2023/08/01 12:27:10;;;;;;;1.53;1.30;;;27.00;55.80;;;;;;5073684;28;20237;-71
2023/08/01 12:29:37;;;;;;;2.73;1.53;;;27.00;56.40;;;;;;5074211;28;20217;-72
2023/08/01 12:32:06;;;;;;;2.93;1.83;;;27.10;56.20;;;;;;5074352;28;20306;-71
2023/08/01 12:34:36;;;;;;;1.97;1.70;;;27.30;54.50;;;;;;5073619;28;20207;-71
2023/08/01 12:37:03;;;;;;;2.70;1.40;;;27.20;53.80;;;;;;5072969;28;20203;-71
2023/08/01 12:39:30;;;;;;;2.33;1.63;;;27.20;53.40;;;;;;5073772;28;20331;-71
2023/08/01 12:41:57;;;;;;;2.60;1.70;;;27.30;53.80;;;;;;5073457;28;20322;-71
2023/08/01 12:44:25;;;;;;;1.90;1.37;;;27.40;53.20;;;;;;5053870;28;20211;-71
2023/08/01 12:46:52;;;;;;;2.30;1.70;;;27.40;52.40;;;;;;5053595;28;20238;-71
2023/08/01 12:49:19;;;;;;;1.97;1.50;;;27.30;52.80;;;;;;5053536;28;20212;-72